createdAt,value
2023-05-15T00:00:32.727Z,501.00
2023-05-15T00:01:32.756Z,501.00
2023-05-15T00:02:32.837Z,501.00
2023-05-15T00:03:33.023Z,501.00
2023-05-15T00:04:32.924Z,500.00
2023-05-15T00:05:32.847Z,502.00
2023-05-15T00:06:32.908Z,501.00
2023-05-15T00:07:32.946Z,501.00
2023-05-15T00:08:32.983Z,501.00
2023-05-15T00:09:33.013Z,503.00
2023-05-15T00:10:33.054Z,502.00
2023-05-15T00:11:33.101Z,503.00
2023-05-15T00:12:33.121Z,504.00
2023-05-15T00:13:33.161Z,504.00
2023-05-15T00:14:33.165Z,503.00
2023-05-15T00:15:33.197Z,503.00
2023-05-15T00:16:33.333Z,503.00
2023-05-15T00:17:33.309Z,504.00
2023-05-15T00:18:33.317Z,503.00
2023-05-15T00:19:33.340Z,501.00
2023-05-15T00:20:33.375Z,499.00
2023-05-15T00:21:33.389Z,500.00
2023-05-15T00:22:33.414Z,498.00
2023-05-15T00:23:33.489Z,498.00
2023-05-15T00:24:33.478Z,497.00
2023-05-15T00:25:33.514Z,497.00
2023-05-15T00:26:33.550Z,497.00
2023-05-15T00:27:33.562Z,496.00
2023-05-15T00:28:33.605Z,497.00
2023-05-15T00:29:33.652Z,496.00
2023-05-15T00:30:33.694Z,497.00
2023-05-15T00:31:33.742Z,499.00
2023-05-15T00:32:33.763Z,500.00
2023-05-15T00:33:33.785Z,501.00
2023-05-15T00:34:33.833Z,503.00
2023-05-15T00:35:34.317Z,502.00
2023-05-15T00:36:33.854Z,500.00
2023-05-15T00:37:33.918Z,497.00
2023-05-15T00:38:33.912Z,496.00
2023-05-15T00:39:33.965Z,499.00
2023-05-15T00:40:34.261Z,500.00
2023-05-15T00:41:34.047Z,499.00
2023-05-15T00:42:34.051Z,498.00
2023-05-15T00:43:34.097Z,500.00
2023-05-15T00:44:34.167Z,499.00
2023-05-15T00:45:34.176Z,501.00
2023-05-15T00:46:34.226Z,500.00
2023-05-15T00:47:34.251Z,500.00
2023-05-15T00:48:34.269Z,501.00
2023-05-15T00:49:34.270Z,499.00
2023-05-15T00:50:34.805Z,500.00
2023-05-15T00:51:34.355Z,499.00
2023-05-15T00:52:34.384Z,499.00
2023-05-15T00:53:34.454Z,498.00
2023-05-15T00:54:34.485Z,499.00
2023-05-15T00:55:34.490Z,499.00
2023-05-15T00:56:34.564Z,498.00
2023-05-15T00:57:34.542Z,499.00
2023-05-15T00:58:34.598Z,497.00
2023-05-15T00:59:34.608Z,497.00
2023-05-15T01:00:34.881Z,496.00
2023-05-15T01:01:34.864Z,495.00
2023-05-15T01:02:34.793Z,496.00
2023-05-15T01:03:34.785Z,496.00
2023-05-15T01:04:34.784Z,495.00
2023-05-15T01:05:34.771Z,495.00
2023-05-15T01:06:34.829Z,496.00
2023-05-15T01:07:34.886Z,499.00
2023-05-15T01:08:34.922Z,499.00
2023-05-15T01:09:34.965Z,499.00
2023-05-15T01:10:34.970Z,500.00
2023-05-15T01:11:34.994Z,501.00
2023-05-15T01:12:35.043Z,502.00
2023-05-15T01:13:35.046Z,502.00
2023-05-15T01:14:35.148Z,500.00
2023-05-15T01:15:35.294Z,500.00
2023-05-15T01:16:35.147Z,502.00
2023-05-15T01:17:35.290Z,500.00
2023-05-15T01:18:35.350Z,502.00
2023-05-15T01:19:35.417Z,502.00
2023-05-15T01:20:35.284Z,502.00
2023-05-15T01:21:35.786Z,501.00
2023-05-15T01:22:35.311Z,500.00
2023-05-15T01:23:35.373Z,499.00
2023-05-15T01:24:35.432Z,494.00
2023-05-15T01:25:35.483Z,494.00
2023-05-15T01:26:36.308Z,496.00
2023-05-15T01:27:35.509Z,497.00
2023-05-15T01:28:35.546Z,498.00
2023-05-15T01:29:35.568Z,502.00
2023-05-15T01:30:35.621Z,501.00
2023-05-15T01:31:35.684Z,503.00
2023-05-15T01:32:35.700Z,502.00
2023-05-15T01:33:35.697Z,500.00
2023-05-15T01:34:35.743Z,501.00
2023-05-15T01:35:35.757Z,499.00
2023-05-15T01:36:35.806Z,500.00
2023-05-15T01:37:35.803Z,498.00
2023-05-15T01:38:35.893Z,495.00
2023-05-15T01:39:35.886Z,497.00
2023-05-15T01:40:35.908Z,496.00
2023-05-15T01:41:35.992Z,496.00
2023-05-15T01:42:36.017Z,495.00
2023-05-15T01:43:36.010Z,495.00
2023-05-15T01:44:36.062Z,495.00
2023-05-15T01:45:36.043Z,496.00
2023-05-15T01:46:36.319Z,498.00
2023-05-15T01:47:36.185Z,499.00
2023-05-15T01:48:36.179Z,498.00
2023-05-15T01:49:36.184Z,498.00
2023-05-15T01:50:36.194Z,496.00
2023-05-15T01:51:36.226Z,495.00
2023-05-15T01:52:36.336Z,496.00
2023-05-15T01:53:36.326Z,496.00
2023-05-15T01:54:36.356Z,496.00
2023-05-15T01:55:36.409Z,496.00
2023-05-15T01:56:36.439Z,497.00
2023-05-15T01:57:36.440Z,500.00
2023-05-15T01:58:36.476Z,502.00
2023-05-15T01:59:36.512Z,504.00
2023-05-15T02:00:36.544Z,503.00
2023-05-15T02:01:36.642Z,502.00
2023-05-15T02:02:36.654Z,501.00
2023-05-15T02:03:36.696Z,500.00
2023-05-15T02:04:36.666Z,500.00
2023-05-15T02:05:36.724Z,498.00
2023-05-15T02:06:36.729Z,498.00
2023-05-15T02:07:36.803Z,501.00
2023-05-15T02:08:36.816Z,499.00
2023-05-15T02:09:36.895Z,497.00
2023-05-15T02:10:36.897Z,500.00
2023-05-15T02:11:36.898Z,501.00
2023-05-15T02:12:36.946Z,500.00
2023-05-15T02:13:36.990Z,498.00
2023-05-15T02:14:37.028Z,499.00
2023-05-15T02:15:37.060Z,499.00
2023-05-15T02:16:37.141Z,496.00
2023-05-15T02:17:37.192Z,495.00
2023-05-15T02:18:37.196Z,495.00
2023-05-15T02:19:37.161Z,499.00
2023-05-15T02:20:37.195Z,499.00
2023-05-15T02:21:37.286Z,500.00
2023-05-15T02:22:37.288Z,500.00
2023-05-15T02:23:37.333Z,503.00
2023-05-15T02:24:37.351Z,501.00
2023-05-15T02:25:37.378Z,500.00
2023-05-15T02:26:37.438Z,499.00
2023-05-15T02:27:37.467Z,495.00
2023-05-15T02:28:37.507Z,494.00
2023-05-15T02:29:37.550Z,493.00
2023-05-15T02:30:37.556Z,494.00
2023-05-15T02:31:37.642Z,494.00
2023-05-15T02:32:37.646Z,495.00
2023-05-15T02:33:37.650Z,495.00
2023-05-15T02:34:37.699Z,493.00
2023-05-15T02:35:37.721Z,493.00
2023-05-15T02:36:37.751Z,491.00
2023-05-15T02:37:37.809Z,493.00
2023-05-15T02:38:37.853Z,493.00
2023-05-15T02:39:37.882Z,491.00
2023-05-15T02:40:37.891Z,490.00
2023-05-15T02:41:37.919Z,492.00
2023-05-15T02:42:37.944Z,496.00
2023-05-15T02:43:37.973Z,497.00
2023-05-15T02:44:38.007Z,499.00
2023-05-15T02:45:38.110Z,502.00
2023-05-15T02:46:38.081Z,504.00
2023-05-15T02:47:38.142Z,504.00
2023-05-15T02:48:38.141Z,504.00
2023-05-15T02:49:38.205Z,501.00
2023-05-15T02:50:38.178Z,496.00
2023-05-15T02:51:38.220Z,494.00
2023-05-15T02:52:38.257Z,495.00
2023-05-15T02:53:38.290Z,494.00
2023-05-15T02:54:38.325Z,495.00
2023-05-15T02:55:38.366Z,494.00
2023-05-15T02:56:38.394Z,493.00
2023-05-15T02:57:38.432Z,492.00
2023-05-15T02:58:38.468Z,494.00
2023-05-15T02:59:38.465Z,494.00
2023-05-15T03:00:38.550Z,495.00
2023-05-15T03:01:38.681Z,497.00
2023-05-15T03:02:38.658Z,497.00
2023-05-15T03:03:38.646Z,497.00
2023-05-15T03:04:38.759Z,497.00
2023-05-15T03:05:38.711Z,496.00
2023-05-15T03:06:38.758Z,496.00
2023-05-15T03:07:38.769Z,496.00
2023-05-15T03:08:38.839Z,495.00
2023-05-15T03:09:38.843Z,496.00
2023-05-15T03:10:38.890Z,496.00
2023-05-15T03:11:38.928Z,496.00
2023-05-15T03:12:38.918Z,496.00
2023-05-15T03:13:38.985Z,498.00
2023-05-15T03:14:39.023Z,498.00
2023-05-15T03:15:39.068Z,497.00
2023-05-15T03:16:39.262Z,497.00
2023-05-15T03:17:39.113Z,496.00
2023-05-15T03:18:39.154Z,495.00
2023-05-15T03:19:39.169Z,495.00
2023-05-15T03:20:39.245Z,495.00
2023-05-15T03:21:39.296Z,496.00
2023-05-15T03:22:39.321Z,497.00
2023-05-15T03:23:39.355Z,497.00
2023-05-15T03:24:39.363Z,498.00
2023-05-15T03:25:39.401Z,499.00
2023-05-15T03:26:39.498Z,497.00
2023-05-15T03:27:39.478Z,497.00
2023-05-15T03:28:41.080Z,499.00
2023-05-15T03:29:39.540Z,497.00
2023-05-15T03:30:39.499Z,498.00
2023-05-15T03:31:39.530Z,500.00
2023-05-15T03:32:39.534Z,500.00
2023-05-15T03:33:39.443Z,500.00
2023-05-15T03:34:41.082Z,501.00
2023-05-15T03:35:39.454Z,502.00
2023-05-15T03:36:39.464Z,501.00
2023-05-15T03:37:39.571Z,499.00
2023-05-15T03:38:39.455Z,500.00
2023-05-15T03:39:39.422Z,499.00
2023-05-15T03:40:39.426Z,502.00
2023-05-15T03:41:39.851Z,504.00
2023-05-15T03:42:39.429Z,504.00
2023-05-15T03:43:39.396Z,504.00
2023-05-15T03:44:39.425Z,505.00
2023-05-15T03:45:39.407Z,504.00
2023-05-15T03:46:39.499Z,505.00
2023-05-15T03:47:39.478Z,505.00
2023-05-15T03:48:39.359Z,504.00
2023-05-15T03:49:39.376Z,503.00
2023-05-15T03:50:39.377Z,503.00
2023-05-15T03:51:39.380Z,502.00
2023-05-15T03:52:40.819Z,502.00
2023-05-15T03:53:39.508Z,504.00
2023-05-15T03:54:39.420Z,506.00
2023-05-15T03:55:39.409Z,505.00
2023-05-15T03:56:39.423Z,509.00
2023-05-15T03:57:39.417Z,508.00
2023-05-15T03:58:39.400Z,511.00
2023-05-15T03:59:39.392Z,513.00
2023-05-15T04:00:39.429Z,514.00
2023-05-15T04:01:55.345Z,515.00
2023-05-15T04:02:40.486Z,515.00
2023-05-15T04:03:39.389Z,518.00
2023-05-15T04:04:39.367Z,518.00
2023-05-15T04:05:39.347Z,517.00
2023-05-15T04:06:39.347Z,516.00
2023-05-15T04:07:39.340Z,514.00
2023-05-15T04:08:40.425Z,513.00
2023-05-15T04:09:39.320Z,512.00
2023-05-15T04:10:39.340Z,508.00
2023-05-15T04:11:39.343Z,509.00
2023-05-15T04:12:39.322Z,511.00
2023-05-15T04:13:39.303Z,512.00
2023-05-15T04:14:39.336Z,512.00
2023-05-15T04:15:39.423Z,511.00
2023-05-15T04:17:39.487Z,511.00
2023-05-15T04:18:39.579Z,509.00
2023-05-15T04:19:41.009Z,508.00
2023-05-15T04:20:39.591Z,507.00
2023-05-15T04:21:39.617Z,505.00
2023-05-15T04:22:39.643Z,507.00
2023-05-15T04:23:39.712Z,506.00
2023-05-15T04:24:39.750Z,506.00
2023-05-15T04:25:39.797Z,506.00
2023-05-15T04:26:39.804Z,503.00
2023-05-15T04:27:39.860Z,499.00
2023-05-15T04:28:41.475Z,498.00
2023-05-15T04:29:40.888Z,496.00
2023-05-15T04:30:39.876Z,496.00
2023-05-15T04:31:39.949Z,497.00
2023-05-15T04:32:39.919Z,497.00
2023-05-15T04:33:39.873Z,496.00
2023-05-15T04:34:39.874Z,498.00
2023-05-15T04:35:39.834Z,499.00
2023-05-15T04:36:40.861Z,500.00
2023-05-15T04:37:39.839Z,500.00
2023-05-15T04:38:39.831Z,502.00
2023-05-15T04:39:39.814Z,500.00
2023-05-15T04:40:39.826Z,500.00
2023-05-15T04:41:39.798Z,500.00
2023-05-15T04:42:39.884Z,500.00
2023-05-15T04:43:41.296Z,503.00
2023-05-15T04:44:39.791Z,502.00
2023-05-15T04:45:39.770Z,502.00
2023-05-15T04:46:39.814Z,504.00
2023-05-15T04:47:39.775Z,504.00
2023-05-15T04:48:39.814Z,504.00
2023-05-15T04:49:39.747Z,503.00
2023-05-15T04:50:39.732Z,504.00
2023-05-15T04:51:39.764Z,501.00
2023-05-15T04:52:39.733Z,501.00
2023-05-15T04:53:39.677Z,499.00
2023-05-15T04:54:39.709Z,499.00
2023-05-15T04:55:39.665Z,500.00
2023-05-15T04:56:39.865Z,502.00
2023-05-15T04:57:39.694Z,504.00
2023-05-15T04:58:39.668Z,504.00
2023-05-15T04:59:39.648Z,504.00
2023-05-15T05:00:39.663Z,506.00
2023-05-15T05:01:39.716Z,506.00
2023-05-15T05:02:39.725Z,506.00
2023-05-15T05:03:39.798Z,506.00
2023-05-15T05:04:39.777Z,508.00
2023-05-15T05:05:39.842Z,507.00
2023-05-15T05:06:39.883Z,508.00
2023-05-15T05:07:39.899Z,508.00
2023-05-15T05:08:39.954Z,507.00
2023-05-15T05:09:39.992Z,507.00
2023-05-15T05:10:40.047Z,507.00
2023-05-15T05:11:40.358Z,506.00
2023-05-15T05:12:40.122Z,507.00
2023-05-15T05:13:40.171Z,508.00
2023-05-15T05:14:40.164Z,508.00
2023-05-15T05:15:40.222Z,508.00
2023-05-15T05:16:40.248Z,508.00
2023-05-15T05:17:40.303Z,508.00
2023-05-15T05:18:40.364Z,506.00
2023-05-15T05:19:40.377Z,506.00
2023-05-15T05:20:40.413Z,504.00
2023-05-15T05:21:40.436Z,504.00
2023-05-15T05:22:40.492Z,503.00
2023-05-15T05:23:40.553Z,504.00
2023-05-15T05:24:40.554Z,503.00
2023-05-15T05:25:40.604Z,503.00
2023-05-15T05:26:40.649Z,501.00
2023-05-15T05:27:40.668Z,503.00
2023-05-15T05:28:40.746Z,504.00
2023-05-15T05:29:40.793Z,504.00
2023-05-15T05:30:40.780Z,503.00
2023-05-15T05:31:40.897Z,504.00
2023-05-15T05:32:41.006Z,503.00
2023-05-15T05:33:40.891Z,503.00
2023-05-15T05:34:40.919Z,504.00
2023-05-15T05:35:40.956Z,505.00
2023-05-15T05:36:41.031Z,505.00
2023-05-15T05:37:41.563Z,505.00
2023-05-15T05:38:41.101Z,506.00
2023-05-15T05:39:41.130Z,506.00
2023-05-15T05:40:41.164Z,508.00
2023-05-15T05:41:41.248Z,511.00
2023-05-15T05:42:41.254Z,512.00
2023-05-15T05:43:41.304Z,511.00
2023-05-15T05:44:41.339Z,513.00
2023-05-15T05:45:41.347Z,513.00
2023-05-15T05:46:41.455Z,513.00
2023-05-15T05:47:41.502Z,512.00
2023-05-15T05:48:41.456Z,512.00
2023-05-15T05:49:41.512Z,517.00
2023-05-15T05:50:41.556Z,523.00
2023-05-15T05:51:41.629Z,527.00
2023-05-15T05:52:41.631Z,530.00
2023-05-15T05:53:41.707Z,530.00
2023-05-15T05:54:41.710Z,535.00
2023-05-15T05:55:41.743Z,542.00
2023-05-15T05:56:41.809Z,548.00
2023-05-15T05:57:41.843Z,552.00
2023-05-15T05:58:41.888Z,555.00
2023-05-15T05:59:41.901Z,556.00
2023-05-15T06:00:41.939Z,557.00
2023-05-15T06:01:42.522Z,558.00
2023-05-15T06:02:42.152Z,559.00
2023-05-15T06:03:42.148Z,561.00
2023-05-15T06:04:42.089Z,564.00
2023-05-15T06:05:42.165Z,567.00
2023-05-15T06:06:42.197Z,573.00
2023-05-15T06:07:42.200Z,576.00
2023-05-15T06:08:42.258Z,574.00
2023-05-15T06:09:42.307Z,575.00
2023-05-15T06:10:42.381Z,578.00
2023-05-15T06:11:42.394Z,580.00
2023-05-15T06:12:42.422Z,580.00
2023-05-15T06:13:42.464Z,582.00
2023-05-15T06:14:42.458Z,583.00
2023-05-15T06:15:42.546Z,581.00
2023-05-15T06:16:42.621Z,579.00
2023-05-15T06:17:42.646Z,577.00
2023-05-15T06:18:42.677Z,577.00
2023-05-15T06:19:42.695Z,578.00
2023-05-15T06:20:42.746Z,581.00
2023-05-15T06:21:42.902Z,583.00
2023-05-15T06:22:42.796Z,581.00
2023-05-15T06:23:42.804Z,579.00
2023-05-15T06:24:42.819Z,579.00
2023-05-15T06:25:42.919Z,579.00
2023-05-15T06:26:42.964Z,577.00
2023-05-15T06:27:42.969Z,580.00
2023-05-15T06:28:42.998Z,579.00
2023-05-15T06:29:43.044Z,578.00
2023-05-15T06:30:43.068Z,579.00
2023-05-15T06:31:43.417Z,583.00
2023-05-15T06:32:43.192Z,586.00
2023-05-15T06:33:43.219Z,582.00
2023-05-15T06:34:43.246Z,583.00
2023-05-15T06:35:43.912Z,585.00
2023-05-15T06:36:43.339Z,583.00
2023-05-15T06:37:43.410Z,583.00
2023-05-15T06:38:43.389Z,584.00
2023-05-15T06:39:43.457Z,584.00
2023-05-15T06:40:43.473Z,583.00
2023-05-15T06:41:43.508Z,581.00
2023-05-15T06:42:43.540Z,581.00
2023-05-15T06:43:43.583Z,580.00
2023-05-15T06:44:43.600Z,580.00
2023-05-15T06:45:43.692Z,579.00
2023-05-15T06:46:43.736Z,581.00
2023-05-15T06:47:43.776Z,579.00
2023-05-15T06:48:43.779Z,627.00
2023-05-15T06:49:43.876Z,640.00
2023-05-15T06:50:43.918Z,654.00
2023-05-15T06:51:43.905Z,662.00
2023-05-15T06:52:43.933Z,668.00
2023-05-15T06:53:43.977Z,679.00
2023-05-15T06:54:43.972Z,692.00
2023-05-15T06:55:44.053Z,747.00
2023-05-15T06:56:44.067Z,771.00
2023-05-15T06:57:44.109Z,844.00
2023-05-15T06:58:44.135Z,859.00
2023-05-15T06:59:44.184Z,934.00
2023-05-15T07:00:44.217Z,1043.00
2023-05-15T07:01:44.293Z,1065.00
2023-05-15T07:02:44.339Z,1081.00
2023-05-15T07:03:44.284Z,1104.00
2023-05-15T07:04:44.325Z,1155.00
2023-05-15T07:05:44.295Z,1176.00
2023-05-15T07:06:44.296Z,1181.00
2023-05-15T07:07:44.297Z,1185.00
2023-05-15T07:08:44.313Z,1189.00
2023-05-15T07:09:44.268Z,1193.00
2023-05-15T07:10:44.281Z,1201.00
2023-05-15T07:11:44.271Z,1201.00
2023-05-15T07:12:44.273Z,1198.00
2023-05-15T07:13:44.277Z,1192.00
2023-05-15T07:14:44.258Z,1157.00
2023-05-15T07:15:44.251Z,1131.00
2023-05-15T07:16:44.259Z,1131.00
2023-05-15T07:17:44.499Z,1131.00
2023-05-15T07:18:44.354Z,1131.00
2023-05-15T07:19:44.295Z,1133.00
2023-05-15T07:20:44.296Z,1137.00
2023-05-15T07:21:44.416Z,1147.00
2023-05-15T07:22:55.006Z,1152.00
2023-05-15T07:23:45.381Z,1154.00
2023-05-15T07:24:44.342Z,1155.00
2023-05-15T07:25:45.921Z,1155.00
2023-05-15T07:26:57.425Z,1153.00
2023-05-15T07:27:45.347Z,1154.00
2023-05-15T07:28:44.310Z,1159.00
2023-05-15T07:29:44.295Z,1166.00
2023-05-15T07:30:44.307Z,1172.00
2023-05-15T07:31:44.332Z,1173.00
2023-05-15T07:32:44.473Z,1176.00
2023-05-15T07:33:44.278Z,1179.00
2023-05-15T07:34:44.306Z,1182.00
2023-05-15T07:35:44.347Z,1185.00
2023-05-15T07:36:44.422Z,1191.00
2023-05-15T07:37:44.500Z,1193.00
2023-05-15T07:38:44.501Z,1191.00
2023-05-15T07:39:44.587Z,1192.00
2023-05-15T07:40:44.633Z,1194.00
2023-05-15T07:41:44.649Z,1199.00
2023-05-15T07:42:44.730Z,1205.00
2023-05-15T07:43:44.761Z,1205.00
2023-05-15T07:44:47.178Z,1203.00
2023-05-15T07:45:44.869Z,1199.00
2023-05-15T07:46:44.886Z,1198.00
2023-05-15T07:47:44.875Z,1199.00
2023-05-15T07:48:44.794Z,1203.00
2023-05-15T07:49:44.764Z,1202.00
2023-05-15T07:50:44.774Z,1204.00
2023-05-15T07:51:44.754Z,1211.00
2023-05-15T07:52:44.750Z,1253.00
2023-05-15T07:53:44.777Z,1281.00
2023-05-15T07:54:44.766Z,1291.00
2023-05-15T07:55:44.748Z,1307.00
2023-05-15T07:56:44.748Z,1317.00
2023-05-15T07:57:44.795Z,1326.00
2023-05-15T07:58:44.749Z,1343.00
2023-05-15T07:59:44.714Z,1364.00
2023-05-15T08:00:44.713Z,1386.00
2023-05-15T08:01:44.668Z,1416.00
2023-05-15T08:02:44.749Z,1430.00
2023-05-15T08:03:44.766Z,1434.00
2023-05-15T08:04:44.768Z,1445.00
2023-05-15T08:05:44.646Z,1475.00
2023-05-15T08:06:44.695Z,1492.00
2023-05-15T08:07:44.662Z,1521.00
2023-05-15T08:08:44.623Z,1536.00
2023-05-15T08:09:44.629Z,1555.00
2023-05-15T08:10:44.598Z,1571.00
2023-05-15T08:11:44.621Z,1587.00
2023-05-15T08:12:44.608Z,1602.00
2023-05-15T08:13:44.659Z,1621.00
2023-05-15T08:14:44.716Z,1639.00
2023-05-15T08:15:44.622Z,1663.00
2023-05-15T08:16:44.584Z,1677.00
2023-05-15T08:17:44.973Z,1693.00
2023-05-15T08:18:44.601Z,1712.00
2023-05-15T08:19:44.565Z,1729.00
2023-05-15T08:20:44.558Z,1752.00
2023-05-15T08:21:44.576Z,1774.00
2023-05-15T08:22:44.549Z,1788.00
2023-05-15T08:23:44.525Z,1808.00
2023-05-15T08:24:44.532Z,1829.00
2023-05-15T08:25:44.514Z,1853.00
2023-05-15T08:26:44.519Z,1877.00
2023-05-15T08:27:44.932Z,1904.00
2023-05-15T08:28:44.515Z,1921.00
2023-05-15T08:29:44.496Z,1934.00
2023-05-15T08:30:44.472Z,1948.00
2023-05-15T08:31:44.503Z,1959.00
2023-05-15T08:32:44.494Z,1975.00
2023-05-15T08:33:44.503Z,1988.00
2023-05-15T08:34:44.504Z,2003.00
2023-05-15T08:35:44.451Z,2015.00
2023-05-15T08:36:44.447Z,2035.00
2023-05-15T08:37:44.431Z,2053.00
2023-05-15T08:38:44.444Z,2077.00
2023-05-15T08:39:44.419Z,2095.00
2023-05-15T08:40:44.446Z,2110.00
2023-05-15T08:41:44.503Z,2122.00
2023-05-15T08:42:44.422Z,2132.00
2023-05-15T08:43:44.392Z,2182.00
2023-05-15T08:44:44.451Z,2247.00
2023-05-15T08:45:44.475Z,2268.00
2023-05-15T08:46:44.509Z,2323.00
2023-05-15T08:47:44.539Z,2330.00
2023-05-15T08:48:44.574Z,2695.00
2023-05-15T08:49:44.602Z,2524.00
2023-05-15T08:50:45.441Z,2399.00
2023-05-15T08:51:44.733Z,2305.00
2023-05-15T08:52:44.836Z,2288.00
2023-05-15T08:53:44.881Z,2278.00
2023-05-15T08:54:46.751Z,2290.00
2023-05-15T08:55:44.924Z,2302.00
2023-05-15T08:56:44.930Z,2329.00
2023-05-15T08:57:44.922Z,2350.00
2023-05-15T08:58:44.910Z,2403.00
2023-05-15T08:59:44.898Z,2411.00
2023-05-15T09:00:44.883Z,2408.00
2023-05-15T09:01:44.878Z,2152.00
2023-05-15T09:02:45.053Z,1825.00
2023-05-15T09:03:44.908Z,1856.00
2023-05-15T09:04:44.883Z,1783.00
2023-05-15T09:05:44.862Z,1732.00
2023-05-15T09:06:44.883Z,1662.00
2023-05-15T09:07:45.083Z,1556.00
2023-05-15T09:08:44.834Z,1557.00
2023-05-15T09:09:44.856Z,1487.00
2023-05-15T09:10:44.827Z,1363.00
2023-05-15T09:11:44.818Z,1378.00
2023-05-15T09:12:44.809Z,1338.00
2023-05-15T09:13:44.804Z,1301.00
2023-05-15T09:14:44.807Z,1250.00
2023-05-15T09:15:44.784Z,1241.00
2023-05-15T09:16:44.878Z,1216.00
2023-05-15T09:17:44.856Z,1074.00
2023-05-15T09:18:44.779Z,1011.00
2023-05-15T09:19:44.754Z,1023.00
2023-05-15T09:20:44.768Z,997.00
2023-05-15T09:21:44.720Z,967.00
2023-05-15T09:22:44.751Z,914.00
2023-05-15T09:23:44.719Z,930.00
2023-05-15T09:24:44.728Z,888.00
2023-05-15T09:25:44.811Z,887.00
2023-05-15T09:26:44.711Z,881.00
2023-05-15T09:27:44.704Z,875.00
2023-05-15T09:28:44.673Z,858.00
2023-05-15T09:29:44.692Z,883.00
2023-05-15T09:30:44.655Z,898.00
2023-05-15T09:31:44.691Z,903.00
2023-05-15T09:32:44.713Z,917.00
2023-05-15T09:33:44.662Z,935.00
2023-05-15T09:34:44.686Z,941.00
2023-05-15T09:35:44.631Z,952.00
2023-05-15T09:36:44.652Z,960.00
2023-05-15T09:37:44.613Z,971.00
2023-05-15T09:38:44.625Z,978.00
2023-05-15T09:39:44.617Z,974.00
2023-05-15T09:40:44.624Z,969.00
2023-05-15T09:41:44.598Z,975.00
2023-05-15T09:42:44.956Z,987.00
2023-05-15T09:43:44.574Z,1000.00
2023-05-15T09:44:44.595Z,1009.00
2023-05-15T09:45:44.570Z,952.00
2023-05-15T09:46:44.660Z,955.00
2023-05-15T09:47:44.678Z,1011.00
2023-05-15T09:48:44.598Z,1036.00
2023-05-15T09:49:44.633Z,1083.00
2023-05-15T09:50:44.683Z,1115.00
2023-05-15T09:51:44.687Z,1085.00
2023-05-15T09:52:44.984Z,1033.00
2023-05-15T09:53:44.722Z,1159.00
2023-05-15T09:54:44.719Z,1212.00
2023-05-15T09:55:44.762Z,1267.00
2023-05-15T09:56:44.768Z,1287.00
2023-05-15T09:57:44.975Z,1298.00
2023-05-15T09:58:44.760Z,1302.00
2023-05-15T09:59:44.800Z,1306.00
2023-05-15T10:00:48.348Z,1311.00
2023-05-15T10:01:44.922Z,1317.00
2023-05-15T10:02:44.762Z,1323.00
2023-05-15T10:03:44.739Z,1325.00
2023-05-15T10:04:44.734Z,1334.00
2023-05-15T10:05:44.902Z,1344.00
2023-05-15T10:06:44.737Z,1349.00
2023-05-15T10:07:44.986Z,1352.00
2023-05-15T10:08:44.729Z,1301.00
2023-05-15T10:09:44.715Z,1282.00
2023-05-15T10:10:44.719Z,1306.00
2023-05-15T10:11:44.718Z,1329.00
2023-05-15T10:12:45.253Z,1352.00
2023-05-15T10:13:44.712Z,1358.00
2023-05-15T10:14:44.664Z,1361.00
2023-05-15T10:15:44.765Z,1283.00
2023-05-15T10:16:44.757Z,1119.00
2023-05-15T10:17:44.719Z,1112.00
2023-05-15T10:18:45.009Z,1114.00
2023-05-15T10:19:57.084Z,1118.00
2023-05-15T10:20:45.646Z,1142.00
2023-05-15T10:21:44.641Z,1047.00
2023-05-15T10:22:44.619Z,1011.00
2023-05-15T10:23:44.603Z,1086.00
2023-05-15T10:24:44.611Z,1126.00
2023-05-15T10:25:44.609Z,1038.00
2023-05-15T10:26:44.570Z,1041.00
2023-05-15T10:27:44.577Z,1039.00
2023-05-15T10:28:45.013Z,1034.00
2023-05-15T10:29:44.590Z,1038.00
2023-05-15T10:30:44.569Z,1076.00
2023-05-15T10:31:44.682Z,1098.00
2023-05-15T10:32:44.597Z,982.00
2023-05-15T10:33:44.552Z,976.00
2023-05-15T10:34:44.523Z,931.00
2023-05-15T10:35:44.594Z,895.00
2023-05-15T10:36:44.647Z,913.00
2023-05-15T10:37:44.657Z,855.00
2023-05-15T10:38:44.999Z,810.00
2023-05-15T10:39:44.675Z,793.00
2023-05-15T10:40:44.706Z,779.00
2023-05-15T10:41:44.671Z,782.00
2023-05-15T10:42:44.727Z,903.00
2023-05-15T10:43:44.690Z,914.00
2023-05-15T10:44:44.721Z,916.00
2023-05-15T10:45:44.677Z,921.00
2023-05-15T10:46:44.711Z,929.00
2023-05-15T10:47:44.730Z,936.00
2023-05-15T10:48:44.721Z,948.00
2023-05-15T10:49:44.709Z,954.00
2023-05-15T10:50:44.689Z,953.00
2023-05-15T10:51:45.503Z,952.00
2023-05-15T10:52:44.680Z,954.00
2023-05-15T10:53:45.002Z,957.00
2023-05-15T10:54:44.685Z,957.00
2023-05-15T10:55:44.681Z,956.00
2023-05-15T10:56:44.678Z,950.00
2023-05-15T10:57:44.670Z,948.00
2023-05-15T10:58:44.996Z,948.00
2023-05-15T10:59:44.679Z,943.00
2023-05-15T11:00:44.724Z,937.00
2023-05-15T11:01:44.787Z,936.00
2023-05-15T11:02:44.713Z,936.00
2023-05-15T11:03:49.144Z,932.00
2023-05-15T11:04:45.765Z,926.00
2023-05-15T11:05:44.681Z,923.00
2023-05-15T11:06:44.714Z,923.00
2023-05-15T11:07:44.670Z,919.00
2023-05-15T11:08:45.083Z,917.00
2023-05-15T11:09:44.641Z,913.00
2023-05-15T11:10:44.689Z,911.00
2023-05-15T11:11:44.635Z,906.00
2023-05-15T11:12:44.631Z,905.00
2023-05-15T11:13:44.991Z,906.00
2023-05-15T11:14:44.597Z,906.00
2023-05-15T11:15:44.612Z,904.00
2023-05-15T11:16:45.593Z,906.00
2023-05-15T11:17:44.678Z,905.00
2023-05-15T11:18:45.047Z,905.00
2023-05-15T11:19:44.712Z,905.00
2023-05-15T11:20:44.692Z,904.00
2023-05-15T11:21:44.746Z,905.00
2023-05-15T11:22:44.764Z,903.00
2023-05-15T11:23:45.013Z,903.00
2023-05-15T11:24:44.804Z,902.00
2023-05-15T11:25:44.832Z,903.00
2023-05-15T11:26:44.860Z,901.00
2023-05-15T11:27:44.893Z,899.00
2023-05-15T11:28:45.010Z,897.00
2023-05-15T11:29:44.933Z,896.00
2023-05-15T11:30:45.072Z,893.00
2023-05-15T11:31:45.012Z,893.00
2023-05-15T11:32:45.127Z,892.00
2023-05-15T11:33:45.090Z,889.00
2023-05-15T11:34:46.011Z,886.00
2023-05-15T11:35:45.159Z,889.00
2023-05-15T11:36:45.216Z,889.00
2023-05-15T11:37:45.230Z,887.00
2023-05-15T11:38:45.542Z,888.00
2023-05-15T11:39:45.300Z,885.00
2023-05-15T11:40:45.353Z,885.00
2023-05-15T11:41:45.342Z,886.00
2023-05-15T11:42:45.411Z,885.00
2023-05-15T11:43:45.520Z,882.00
2023-05-15T11:44:45.485Z,880.00
2023-05-15T11:45:45.528Z,875.00
2023-05-15T11:46:45.583Z,869.00
2023-05-15T11:47:45.609Z,861.00
2023-05-15T11:48:46.019Z,857.00
2023-05-15T11:49:45.696Z,854.00
2023-05-15T11:50:45.722Z,850.00
2023-05-15T11:51:45.772Z,849.00
2023-05-15T11:52:45.886Z,845.00
2023-05-15T11:53:45.917Z,839.00
2023-05-15T11:54:45.938Z,830.00
2023-05-15T11:55:45.986Z,818.00
2023-05-15T11:56:46.105Z,814.00
2023-05-15T11:57:46.092Z,812.00
2023-05-15T11:58:46.514Z,811.00
2023-05-15T11:59:46.210Z,809.00
2023-05-15T12:00:46.304Z,798.00
2023-05-15T12:01:46.333Z,791.00
2023-05-15T12:02:46.470Z,795.00
2023-05-15T12:03:46.614Z,792.00
2023-05-15T12:04:46.557Z,785.00
2023-05-15T12:05:57.550Z,783.00
2023-05-15T12:06:47.638Z,779.00
2023-05-15T12:07:46.586Z,773.00
2023-05-15T12:08:47.048Z,771.00
2023-05-15T12:09:46.586Z,772.00
2023-05-15T12:10:46.569Z,774.00
2023-05-15T12:11:46.532Z,771.00
2023-05-15T12:12:46.553Z,768.00
2023-05-15T12:13:46.531Z,766.00
2023-05-15T12:14:46.598Z,762.00
2023-05-15T12:15:46.679Z,758.00
2023-05-15T12:16:46.756Z,755.00
2023-05-15T12:17:46.824Z,749.00
2023-05-15T12:18:46.871Z,746.00
2023-05-15T12:19:46.901Z,747.00
2023-05-15T12:20:47.000Z,741.00
2023-05-15T12:21:47.079Z,738.00
2023-05-15T12:22:47.077Z,732.00
2023-05-15T12:23:59.518Z,730.00